createdAt,value
2019-05-11T00:00:00.361Z,10.95
2019-05-11T00:02:28.979Z,11.20
2019-05-11T00:04:57.907Z,10.95
2019-05-11T00:07:26.382Z,10.32
2019-05-11T00:09:58.152Z,10.53
2019-05-11T00:12:25.885Z,10.28
2019-05-11T00:14:57.455Z,10.13
2019-05-11T00:17:26.075Z,9.53
2019-05-11T00:19:54.773Z,10.20
2019-05-11T00:22:23.511Z,9.73
2019-05-11T00:24:52.207Z,9.90
2019-05-11T00:27:20.793Z,9.60
2019-05-11T00:29:49.497Z,9.15
2019-05-11T00:32:18.155Z,9.75
2019-05-11T00:34:46.813Z,9.15
2019-05-11T00:37:15.801Z,8.75
2019-05-11T00:39:44.245Z,10.43
2019-05-11T00:42:12.909Z,9.38
2019-05-11T00:44:41.611Z,9.88
2019-05-11T00:47:10.301Z,8.65
2019-05-11T00:49:39.179Z,9.93
2019-05-11T00:52:07.871Z,9.50
2019-05-11T00:54:36.385Z,9.28
2019-05-11T00:57:04.973Z,9.70
2019-05-11T00:59:33.556Z,9.15
2019-05-11T01:02:02.082Z,9.90
2019-05-11T01:04:32.978Z,9.68
2019-05-11T01:07:01.781Z,9.98
2019-05-11T01:09:30.294Z,9.40
2019-05-11T01:11:58.999Z,9.93
2019-05-11T01:14:27.518Z,10.23
2019-05-11T01:16:56.074Z,10.05
2019-05-11T01:19:24.784Z,9.53
2019-05-11T01:21:53.443Z,10.05
2019-05-11T01:24:22.321Z,10.10
2019-05-11T01:26:50.764Z,9.28
2019-05-11T01:29:19.482Z,9.33
2019-05-11T01:31:48.119Z,8.88
2019-05-11T01:34:16.573Z,9.45
2019-05-11T01:36:45.219Z,9.75
2019-05-11T01:39:13.919Z,9.73
2019-05-11T01:41:42.585Z,9.40
2019-05-11T01:44:11.479Z,9.40
2019-05-11T01:46:39.971Z,9.83
2019-05-11T01:49:08.604Z,9.68
2019-05-11T01:51:37.124Z,9.80
2019-05-11T01:54:05.682Z,9.68
2019-05-11T01:56:34.409Z,9.43
2019-05-11T01:59:03.141Z,9.55
2019-05-11T02:01:31.767Z,9.60
2019-05-11T02:04:00.421Z,9.68
2019-05-11T02:06:28.917Z,9.75
2019-05-11T02:08:57.613Z,10.78
2019-05-11T02:11:26.206Z,10.68
2019-05-11T02:13:54.913Z,10.70
2019-05-11T02:16:23.575Z,10.43
2019-05-11T02:18:52.225Z,10.03
2019-05-11T02:21:20.923Z,10.75
2019-05-11T02:23:49.648Z,10.23
2019-05-11T02:26:18.275Z,10.05
2019-05-11T02:28:46.748Z,9.98
2019-05-11T02:31:15.349Z,9.85
2019-05-11T02:33:43.831Z,9.83
2019-05-11T02:36:12.426Z,10.03
2019-05-11T02:38:41.182Z,9.55
2019-05-11T02:41:10.034Z,9.98
2019-05-11T02:43:38.516Z,9.20
2019-05-11T02:46:07.153Z,9.58
2019-05-11T02:48:35.643Z,9.75
2019-05-11T02:51:04.222Z,11.97
2019-05-11T02:53:33.377Z,13.40
2019-05-11T02:56:02.036Z,12.70
2019-05-11T02:58:30.857Z,12.10
2019-05-11T03:00:59.312Z,11.25
2019-05-11T03:03:27.962Z,11.22
2019-05-11T03:05:56.602Z,9.98
2019-05-11T03:08:25.271Z,11.63
2019-05-11T03:10:53.975Z,11.25
2019-05-11T03:13:22.421Z,11.78
2019-05-11T03:15:51.449Z,10.30
2019-05-11T03:18:20.077Z,12.47
2019-05-11T03:20:48.590Z,11.95
2019-05-11T03:23:17.141Z,11.05
2019-05-11T03:25:45.635Z,10.88
2019-05-11T03:28:14.209Z,11.28
2019-05-11T03:30:42.988Z,10.98
2019-05-11T03:33:11.807Z,11.40
2019-05-11T03:35:40.272Z,11.15
2019-05-11T03:38:08.905Z,12.88
2019-05-11T03:40:37.360Z,11.68
2019-05-11T03:43:06.086Z,12.53
2019-05-11T03:45:34.778Z,12.82
2019-05-11T03:48:03.654Z,13.45
2019-05-11T03:50:32.098Z,13.32
2019-05-11T03:53:00.787Z,13.15
2019-05-11T03:55:29.447Z,12.78
2019-05-11T03:57:58.190Z,11.45
2019-05-11T04:00:26.985Z,12.18
2019-05-11T04:02:55.612Z,12.07
2019-05-11T04:05:24.193Z,12.68
2019-05-11T04:07:52.831Z,12.60
2019-05-11T04:10:24.939Z,11.75
2019-05-11T04:12:51.573Z,11.57
2019-05-11T04:15:21.324Z,11.90
2019-05-11T04:17:49.817Z,11.33
2019-05-11T04:20:18.633Z,11.60
2019-05-11T04:22:47.140Z,10.68
2019-05-11T04:25:15.689Z,9.88
2019-05-11T04:27:44.201Z,9.65
2019-05-11T04:30:13.109Z,10.53
2019-05-11T04:32:41.578Z,11.20
2019-05-11T04:35:10.432Z,10.43
2019-05-11T04:37:38.944Z,10.43
2019-05-11T04:40:07.949Z,11.43
2019-05-11T04:42:53.441Z,11.43
2019-05-11T04:45:08.505Z,12.90
2019-05-11T04:47:37.068Z,12.03
2019-05-11T04:50:08.026Z,13.90
2019-05-11T04:52:36.644Z,13.68
2019-05-11T04:55:06.077Z,14.13
2019-05-11T04:57:34.577Z,14.25
2019-05-11T05:00:03.570Z,14.65
2019-05-11T05:02:32.049Z,13.15
2019-05-11T05:05:00.630Z,15.43
2019-05-11T05:07:29.125Z,15.98
2019-05-11T05:09:57.695Z,14.87
2019-05-11T05:12:26.412Z,14.60
2019-05-11T05:14:55.067Z,14.93
2019-05-11T05:17:23.789Z,15.65
2019-05-11T05:19:52.441Z,14.78
2019-05-11T05:22:21.055Z,15.85
2019-05-11T05:24:49.513Z,16.07
2019-05-11T05:27:18.238Z,16.37
2019-05-11T05:29:46.876Z,15.83
2019-05-11T05:32:15.599Z,16.82
2019-05-11T05:34:44.247Z,14.85
2019-05-11T05:37:12.808Z,16.27
2019-05-11T05:39:41.313Z,16.82
2019-05-11T05:42:10.040Z,17.60
2019-05-11T05:44:38.715Z,17.48
2019-05-11T05:47:07.368Z,17.95
2019-05-11T05:49:35.855Z,17.73
2019-05-11T05:52:04.546Z,17.15
2019-05-11T05:54:33.182Z,18.02
2019-05-11T05:57:01.844Z,18.52
2019-05-11T05:59:30.594Z,17.50
2019-05-11T06:01:59.178Z,18.12
2019-05-11T06:04:27.698Z,17.37
2019-05-11T06:06:56.303Z,17.80
2019-05-11T06:09:25.198Z,17.87
2019-05-11T06:11:53.649Z,17.10
2019-05-11T06:14:22.410Z,15.40
2019-05-11T06:16:51.066Z,15.43
2019-05-11T06:19:19.510Z,16.25
2019-05-11T06:21:48.274Z,16.25
2019-05-11T06:24:16.807Z,17.98
2019-05-11T06:26:45.466Z,17.42
2019-05-11T06:29:14.098Z,18.10
2019-05-11T06:31:42.609Z,18.45
2019-05-11T06:34:11.262Z,18.32
2019-05-11T06:36:39.950Z,16.97
2019-05-11T06:39:08.713Z,17.20
2019-05-11T06:41:38.424Z,17.82
2019-05-11T06:44:07.093Z,17.75
2019-05-11T06:46:35.672Z,18.37
2019-05-11T06:49:04.211Z,18.30
2019-05-11T06:51:33.127Z,19.52
2019-05-11T06:54:01.611Z,20.25
2019-05-11T06:56:30.257Z,20.80
2019-05-11T06:58:58.758Z,19.85
2019-05-11T07:01:27.504Z,22.13
2019-05-11T07:03:56.067Z,22.17
2019-05-11T07:06:27.021Z,22.55
2019-05-11T07:08:55.128Z,23.25
2019-05-11T07:11:23.619Z,24.30
2019-05-11T07:13:52.340Z,23.35
2019-05-11T07:16:20.983Z,24.52
2019-05-11T07:18:49.701Z,25.48
2019-05-11T07:21:18.353Z,27.70
2019-05-11T07:23:47.049Z,32.25
2019-05-11T07:26:15.750Z,28.65
2019-05-11T07:28:44.412Z,33.48
2019-05-11T07:31:12.915Z,33.70
2019-05-11T07:33:41.478Z,35.33
2019-05-11T07:36:10.200Z,37.25
2019-05-11T07:38:38.848Z,37.40
2019-05-11T07:41:08.723Z,35.90
2019-05-11T07:43:38.218Z,40.48
2019-05-11T07:46:07.783Z,37.45
2019-05-11T07:48:38.594Z,39.53
2019-05-11T07:51:08.934Z,36.68
2019-05-11T07:53:38.095Z,37.73
2019-05-11T07:56:08.300Z,38.73
2019-05-11T07:58:38.789Z,40.30
2019-05-11T08:01:08.671Z,38.33
2019-05-11T08:03:38.888Z,38.33
2019-05-11T08:06:08.878Z,39.13
2019-05-11T08:08:38.516Z,37.05
2019-05-11T08:11:08.085Z,38.78
2019-05-11T08:13:38.801Z,38.70
2019-05-11T08:16:08.271Z,37.80
2019-05-11T08:18:38.661Z,40.00
2019-05-11T08:21:08.847Z,40.00
2019-05-11T08:23:37.807Z,40.88
2019-05-11T08:26:08.366Z,41.20
2019-05-11T08:28:38.121Z,41.37
2019-05-11T08:31:08.056Z,39.00
2019-05-11T08:33:38.884Z,39.45
2019-05-11T08:36:08.366Z,39.03
2019-05-11T08:38:37.781Z,42.48
2019-05-11T08:41:08.100Z,40.43
2019-05-11T08:43:38.887Z,37.70
2019-05-11T08:46:08.017Z,37.53
2019-05-11T08:48:38.811Z,38.60
2019-05-11T08:51:08.398Z,38.88
2019-05-11T08:53:38.801Z,34.50
2019-05-11T08:56:11.143Z,37.13
2019-05-11T08:58:42.927Z,37.33
2019-05-11T09:01:18.650Z,33.33
2019-05-11T09:03:48.055Z,32.10
2019-05-11T09:06:17.952Z,33.02
2019-05-11T09:08:49.062Z,31.12
2019-05-11T09:11:19.099Z,25.62
2019-05-11T09:13:48.916Z,23.80
2019-05-11T09:16:18.981Z,24.37
2019-05-11T09:18:48.204Z,23.65
2019-05-11T09:21:18.816Z,23.87
2019-05-11T09:23:48.616Z,22.32
2019-05-11T09:26:18.172Z,21.40
2019-05-11T09:28:53.923Z,20.55
2019-05-11T09:31:27.992Z,21.48
2019-05-11T09:34:05.278Z,20.40
2019-05-11T09:36:41.725Z,21.42
2019-05-11T09:39:10.174Z,19.48
2019-05-11T09:41:42.493Z,19.90
2019-05-11T09:44:20.117Z,19.90
2019-05-11T09:46:48.978Z,18.65
2019-05-11T09:50:04.089Z,19.62
2019-05-11T09:52:00.925Z,18.07
2019-05-11T09:55:28.198Z,19.37
2019-05-11T09:57:08.166Z,17.75
2019-05-11T09:59:38.321Z,17.45
2019-05-11T10:02:07.944Z,18.05
2019-05-11T10:04:37.991Z,17.37
2019-05-11T10:07:08.838Z,16.87
2019-05-11T10:09:38.322Z,14.87
2019-05-11T10:12:08.136Z,15.23
2019-05-11T10:14:38.006Z,15.70
2019-05-11T10:17:07.822Z,14.73
2019-05-11T10:19:36.719Z,15.85
2019-05-11T10:22:05.169Z,14.83
2019-05-11T10:24:33.633Z,13.83
2019-05-11T10:27:02.247Z,13.55
2019-05-11T10:29:33.795Z,14.68
2019-05-11T10:32:01.156Z,15.15
2019-05-11T10:34:29.629Z,15.23
2019-05-11T10:36:58.232Z,15.65
2019-05-11T10:39:27.923Z,16.97
2019-05-11T10:41:58.329Z,17.55
2019-05-11T10:44:28.114Z,14.63
2019-05-11T10:46:58.941Z,15.35
2019-05-11T10:49:28.914Z,14.38
2019-05-11T10:51:58.803Z,15.30
2019-05-11T10:54:28.759Z,14.75
2019-05-11T10:56:58.056Z,13.80
2019-05-11T10:59:28.180Z,12.18
2019-05-11T11:01:59.022Z,13.03
2019-05-11T11:04:28.828Z,12.20
2019-05-11T11:06:59.146Z,10.78
2019-05-11T11:09:28.341Z,13.32
2019-05-11T11:11:57.952Z,11.20
2019-05-11T11:14:28.660Z,13.83
2019-05-11T11:16:58.400Z,11.53
2019-05-11T11:19:28.912Z,10.00
2019-05-11T11:22:07.876Z,12.90
2019-05-11T11:24:28.689Z,11.63
2019-05-11T11:26:57.781Z,13.22
2019-05-11T11:29:28.600Z,12.55
2019-05-11T11:31:58.552Z,11.80
2019-05-11T11:34:28.014Z,12.60
2019-05-11T11:36:58.086Z,12.53
2019-05-11T11:39:28.302Z,12.78
2019-05-11T11:41:58.625Z,11.10
2019-05-11T11:44:28.599Z,12.10
2019-05-11T11:46:59.071Z,11.63
2019-05-11T11:49:28.431Z,9.85
2019-05-11T11:51:57.963Z,9.30
2019-05-11T11:54:28.783Z,10.28
2019-05-11T11:56:58.933Z,10.10
2019-05-11T11:59:28.667Z,10.70
2019-05-11T12:01:58.099Z,10.53
2019-05-11T12:04:28.306Z,10.20
2019-05-11T12:06:58.118Z,10.53
2019-05-11T12:09:28.663Z,9.63
2019-05-11T12:11:58.296Z,9.28
2019-05-11T12:14:28.269Z,9.80
2019-05-11T12:17:07.412Z,9.43
2019-05-11T12:19:27.907Z,10.50
2019-05-11T12:21:58.058Z,10.30
2019-05-11T12:24:28.720Z,8.48
2019-05-11T12:26:58.742Z,9.50
2019-05-11T12:29:28.284Z,8.88
2019-05-11T12:31:58.962Z,9.13
2019-05-11T12:34:28.294Z,10.55
2019-05-11T12:36:58.127Z,10.58
2019-05-11T12:39:28.301Z,10.63
2019-05-11T12:41:58.193Z,10.75
2019-05-11T12:44:28.341Z,10.25
2019-05-11T12:46:58.405Z,11.45
2019-05-11T12:49:28.865Z,12.78
2019-05-11T12:51:58.237Z,11.12
2019-05-11T12:54:28.019Z,12.60
2019-05-11T12:56:57.971Z,11.15
2019-05-11T12:59:27.818Z,12.18
2019-05-11T13:01:58.792Z,12.70
2019-05-11T13:04:28.257Z,12.30
2019-05-11T13:06:58.216Z,11.00
2019-05-11T13:09:28.782Z,13.48
2019-05-11T13:11:58.793Z,12.58
2019-05-11T13:14:27.806Z,12.70
2019-05-11T13:16:58.744Z,11.40
2019-05-11T13:19:28.221Z,11.35
2019-05-11T13:21:59.007Z,12.07
2019-05-11T13:24:28.237Z,9.50
2019-05-11T13:26:59.573Z,9.68
2019-05-11T13:29:28.647Z,10.40
2019-05-11T13:31:59.105Z,10.10
2019-05-11T13:34:31.243Z,11.78
2019-05-11T13:36:58.180Z,10.05
2019-05-11T13:39:28.524Z,10.68
2019-05-11T13:41:57.999Z,8.38
2019-05-11T13:44:28.018Z,8.48
2019-05-11T13:46:58.655Z,9.43
2019-05-11T13:49:28.366Z,9.90
2019-05-11T13:51:58.531Z,9.20
2019-05-11T13:54:29.600Z,10.13
2019-05-11T13:56:57.798Z,9.30
2019-05-11T13:59:28.024Z,8.63
2019-05-11T14:01:58.284Z,9.30
2019-05-11T14:04:28.110Z,10.58
2019-05-11T14:06:58.636Z,11.45
2019-05-11T14:09:28.924Z,11.33
2019-05-11T14:11:58.323Z,10.72
2019-05-11T14:14:28.718Z,11.05
2019-05-11T14:16:58.869Z,11.38
2019-05-11T14:19:29.007Z,10.25
2019-05-11T14:21:58.503Z,11.15
2019-05-11T14:24:28.837Z,10.78
2019-05-11T14:26:58.062Z,11.35
2019-05-11T14:29:28.429Z,9.80
2019-05-11T14:31:58.142Z,12.15
2019-05-11T14:34:28.292Z,11.78
2019-05-11T14:36:58.222Z,11.60
2019-05-11T14:39:27.956Z,11.93
2019-05-11T14:41:58.729Z,13.65
2019-05-11T14:44:28.585Z,11.65
2019-05-11T14:46:59.334Z,11.53
2019-05-11T14:49:27.771Z,12.13
2019-05-11T14:51:57.717Z,11.70
2019-05-11T14:54:28.832Z,11.25
2019-05-11T14:56:58.646Z,11.70
2019-05-11T14:59:28.739Z,11.60
2019-05-11T15:01:58.315Z,12.37
2019-05-11T15:04:28.709Z,12.58
2019-05-11T15:06:57.919Z,11.65
2019-05-11T15:09:28.508Z,13.30
2019-05-11T15:11:58.135Z,12.95
2019-05-11T15:14:28.903Z,12.07
2019-05-11T15:16:57.659Z,12.58
2019-05-11T15:19:27.850Z,13.32
2019-05-11T15:21:58.168Z,13.32
2019-05-11T15:24:28.856Z,12.07
2019-05-11T15:26:57.703Z,12.07
2019-05-11T15:29:26.138Z,13.20
2019-05-11T15:31:55.056Z,11.57
2019-05-11T15:34:23.519Z,11.83
2019-05-11T15:36:52.189Z,10.55
2019-05-11T15:39:20.835Z,10.65
2019-05-11T15:41:49.616Z,9.50
2019-05-11T15:44:18.526Z,9.58
2019-05-11T15:46:47.980Z,10.28
2019-05-11T15:49:17.960Z,9.83
2019-05-11T15:51:48.883Z,10.82
2019-05-11T15:54:18.528Z,9.68
2019-05-11T15:56:47.510Z,7.78
2019-05-11T15:59:16.223Z,10.68
2019-05-11T16:01:44.921Z,9.55
2019-05-11T16:04:13.572Z,10.13
2019-05-11T16:06:42.220Z,10.30
2019-05-11T16:09:11.010Z,10.48
2019-05-11T16:11:39.587Z,10.93
2019-05-11T16:14:08.912Z,10.13
2019-05-11T16:16:39.031Z,10.30
2019-05-11T16:19:13.966Z,11.30
2019-05-11T16:21:38.900Z,11.15
2019-05-11T16:24:08.021Z,12.00
2019-05-11T16:26:36.757Z,12.68
2019-05-11T16:29:05.459Z,11.57
2019-05-11T16:31:33.993Z,11.75
2019-05-11T16:34:02.933Z,11.48
2019-05-11T16:36:31.727Z,12.40
2019-05-11T16:39:00.399Z,11.63
2019-05-11T16:41:29.345Z,11.63
2019-05-11T16:43:58.703Z,11.53
2019-05-11T16:46:28.389Z,11.85
2019-05-11T16:48:57.891Z,10.72
2019-05-11T16:51:28.397Z,11.60
2019-05-11T16:53:58.740Z,11.43
2019-05-11T16:56:27.736Z,11.05
2019-05-11T16:58:58.748Z,11.40
2019-05-11T17:01:26.562Z,11.83
2019-05-11T17:03:57.702Z,10.40
2019-05-11T17:06:25.466Z,11.65
2019-05-11T17:08:54.108Z,11.35
2019-05-11T17:11:22.666Z,11.65
2019-05-11T17:13:51.173Z,11.63
2019-05-11T17:16:19.900Z,11.70
2019-05-11T17:18:48.613Z,11.83
2019-05-11T17:21:18.301Z,12.73
2019-05-11T17:23:48.744Z,11.33
2019-05-11T17:26:19.086Z,13.10
2019-05-11T17:28:48.981Z,12.37
2019-05-11T17:31:18.805Z,11.95
2019-05-11T17:33:47.874Z,11.60
2019-05-11T17:36:18.492Z,10.98
2019-05-11T17:38:47.861Z,10.20
2019-05-11T17:41:16.856Z,10.03
2019-05-11T17:43:47.825Z,10.48
2019-05-11T17:46:18.268Z,12.18
2019-05-11T17:48:46.333Z,11.80
2019-05-11T17:51:21.460Z,12.33
2019-05-11T17:53:45.459Z,13.25
2019-05-11T17:56:13.975Z,13.30
2019-05-11T17:58:42.633Z,13.75
2019-05-11T18:01:11.259Z,13.75
2019-05-11T18:03:39.999Z,13.70
2019-05-11T18:06:08.661Z,14.33
2019-05-11T18:08:37.429Z,13.43
2019-05-11T18:11:08.184Z,13.15
2019-05-11T18:13:38.495Z,11.73
2019-05-11T18:16:08.546Z,12.20
2019-05-11T18:18:37.872Z,12.50
2019-05-11T18:21:08.505Z,12.07
2019-05-11T18:23:38.730Z,12.90
2019-05-11T18:26:08.848Z,12.00
2019-05-11T18:28:37.807Z,11.90
2019-05-11T18:31:07.111Z,12.58
2019-05-11T18:33:35.571Z,12.98
2019-05-11T18:36:04.450Z,13.08
2019-05-11T18:38:32.914Z,13.13
2019-05-11T18:41:01.670Z,12.30
2019-05-11T18:43:30.285Z,11.85
2019-05-11T18:45:59.016Z,12.80
2019-05-11T18:48:29.147Z,13.43
2019-05-11T18:50:59.141Z,12.13
2019-05-11T18:53:28.907Z,12.35
2019-05-11T18:55:59.005Z,13.00
2019-05-11T18:58:28.133Z,13.08
2019-05-11T19:00:56.662Z,13.50
2019-05-11T19:03:25.300Z,15.13
2019-05-11T19:05:57.228Z,16.95
2019-05-11T19:08:24.284Z,14.60
2019-05-11T19:10:52.900Z,14.40
2019-05-11T19:13:21.858Z,14.38
2019-05-11T19:15:50.383Z,14.33
2019-05-11T19:18:18.997Z,14.50
2019-05-11T19:20:49.414Z,14.07
2019-05-11T19:23:19.188Z,13.72
2019-05-11T19:25:48.204Z,12.70
2019-05-11T19:28:18.707Z,13.08
2019-05-11T19:30:48.804Z,13.43
2019-05-11T19:33:18.941Z,12.65
2019-05-11T19:35:48.225Z,12.73
2019-05-11T19:38:18.941Z,11.65
2019-05-11T19:40:48.442Z,11.28
2019-05-11T19:43:18.606Z,12.10
2019-05-11T19:45:48.680Z,11.75
2019-05-11T19:48:17.773Z,11.33
2019-05-11T19:51:02.626Z,11.18
2019-05-11T19:53:18.636Z,10.78
2019-05-11T19:55:47.906Z,11.57
2019-05-11T19:58:19.221Z,12.35
2019-05-11T20:00:48.786Z,13.05
2019-05-11T20:03:18.284Z,12.90
2019-05-11T20:05:48.482Z,14.23
2019-05-11T20:08:18.460Z,14.23
2019-05-11T20:10:48.700Z,15.68
2019-05-11T20:13:18.083Z,15.65
2019-05-11T20:15:48.473Z,15.88
2019-05-11T20:18:18.400Z,16.70
2019-05-11T20:20:48.084Z,16.02
2019-05-11T20:23:17.046Z,17.00
2019-05-11T20:25:47.802Z,16.93
2019-05-11T20:28:18.109Z,16.10
2019-05-11T20:30:48.272Z,15.80
2019-05-11T20:33:18.753Z,15.35
2019-05-11T20:35:48.637Z,16.25
2019-05-11T20:38:18.766Z,16.37
2019-05-11T20:40:48.416Z,15.45
2019-05-11T20:43:18.560Z,15.43
2019-05-11T20:45:48.612Z,15.93
2019-05-11T20:48:18.447Z,16.75
2019-05-11T20:50:48.363Z,16.25
2019-05-11T20:53:17.992Z,15.30
2019-05-11T20:55:47.873Z,16.00
2019-05-11T20:58:18.772Z,16.27
2019-05-11T21:00:48.995Z,15.05
2019-05-11T21:03:17.880Z,14.20
2019-05-11T21:05:48.209Z,14.63
2019-05-11T21:08:17.737Z,14.30
2019-05-11T21:10:48.793Z,14.25
2019-05-11T21:13:17.874Z,13.90
2019-05-11T21:15:47.942Z,13.32
2019-05-11T21:18:18.400Z,13.72
2019-05-11T21:20:48.345Z,12.88
2019-05-11T21:23:18.607Z,12.73
2019-05-11T21:25:47.667Z,12.10
2019-05-11T21:28:16.165Z,12.00
2019-05-11T21:30:44.622Z,12.23
2019-05-11T21:33:13.173Z,12.53
2019-05-11T21:35:41.805Z,11.57
2019-05-11T21:38:10.540Z,12.35
2019-05-11T21:40:39.167Z,12.07
2019-05-11T21:43:08.799Z,12.53
2019-05-11T21:45:40.548Z,11.60
2019-05-11T21:48:08.055Z,11.65
2019-05-11T21:50:37.409Z,13.78
2019-05-11T21:53:08.093Z,12.28
2019-05-11T21:55:37.746Z,11.83
2019-05-11T21:58:08.902Z,10.30
2019-05-11T22:00:38.711Z,11.12
2019-05-11T22:03:09.981Z,11.63
2019-05-11T22:05:38.189Z,10.45
2019-05-11T22:08:08.565Z,9.53
2019-05-11T22:10:38.546Z,11.22
2019-05-11T22:13:07.528Z,9.00
2019-05-11T22:15:38.605Z,8.45
2019-05-11T22:18:07.979Z,8.18
2019-05-11T22:20:38.031Z,8.35
2019-05-11T22:23:08.420Z,7.78
2019-05-11T22:25:38.156Z,9.15
2019-05-11T22:28:08.416Z,8.40
2019-05-11T22:30:39.358Z,7.50
2019-05-11T22:33:08.752Z,7.45
2019-05-11T22:35:38.562Z,7.03
2019-05-11T22:38:08.463Z,6.53
2019-05-11T22:40:38.407Z,6.45
2019-05-11T22:43:09.293Z,5.90
2019-05-11T22:45:38.439Z,6.08
2019-05-11T22:48:07.866Z,5.90
2019-05-11T22:50:38.233Z,5.40
2019-05-11T22:53:08.702Z,5.72
2019-05-11T22:55:38.220Z,5.35
2019-05-11T22:58:08.530Z,5.92
2019-05-11T23:00:42.706Z,5.12
2019-05-11T23:03:11.375Z,5.30
2019-05-11T23:05:41.417Z,5.28
2019-05-11T23:08:10.153Z,4.78
2019-05-11T23:10:38.860Z,5.33
2019-05-11T23:13:08.326Z,5.60
2019-05-11T23:15:40.149Z,5.80
2019-05-11T23:18:08.753Z,5.53
2019-05-11T23:20:38.671Z,5.90
2019-05-11T23:23:08.723Z,5.42
2019-05-11T23:25:37.984Z,5.28
2019-05-11T23:28:06.543Z,5.33
2019-05-11T23:30:35.108Z,5.28
2019-05-11T23:33:03.602Z,5.30
2019-05-11T23:35:32.247Z,5.10
2019-05-11T23:38:00.856Z,4.83
2019-05-11T23:40:29.827Z,5.85
2019-05-11T23:42:58.273Z,5.17
2019-05-11T23:45:27.933Z,4.80
2019-05-11T23:47:58.896Z,5.45
2019-05-11T23:50:28.147Z,5.30
2019-05-11T23:53:06.590Z,5.30
2019-05-11T23:55:29.014Z,5.65
2019-05-11T23:57:58.025Z,5.03
